Aérodrome :
LOGIN :

S'inscrire | Disclaimer

   EN    FR    IT 

 










Légende :    VFR   VFR Marginal   IFR   IFR Intensif   IFR Très Intensif
Visi : 
Plafond : 
>= 8 km
>= 3000ft
5 à 8 km
1000 à 3000 ft
1500m à 5 km
500 à 1000 ft
800 à 1500m
200 à 500 ft
< 800m
< 200 ft
Symboles :   Orages  Brouillard  Fortes neiges  Fortes précipitations  Vent > 20 kt
SIGMETs :   Divers  Orages  Givrage  Turbulence  Onde Orograph.  Cendres Volcan.







- Altitude de l'aérodrome : 325 ft
- Code IATA : BES
- Voir les cartes d'approche


LFRB - Brest

DERNIER METAR :
  • 180230Z AUTO 16005KT 9999 FEW048 BKN110 OVC140 04/M01 Q1018 NOSIG

METARs EXPIRÉS :
  • 180200Z AUTO 15006KT CAVOK 04/M01 Q1018 NOSIG
  • 180130Z AUTO 16006KT CAVOK 04/M01 Q1018 NOSIG
  • 180100Z AUTO 15006KT CAVOK 03/M01 Q1019 NOSIG
  • 180030Z AUTO 14005KT CAVOK 03/M00 Q1019 NOSIG
  • 180000Z AUTO 15007KT CAVOK 03/00 Q1019 NOSIG

TAF TAF LFRB
Valide du 18 à 00h jusqu'au 19 à 06h UTC


172300Z 1800/1906 16008KT CAVOK
BECMG 1805/1807 16015G25KT 5000 RA BKN014
TEMPO 1808/1815 2500 RADZ BKN003
BECMG 1816/1818 22010KT 9999 NSW BKN015
ATIS : +33 2 98 32 02 71
Pas de NOTAMs connus pour ce terrain.



MET'MAP, la Météo Aéronautique d'un coup d'oeil ! - Copyright ORBIFLY Décembre 2007 - Disclaimer

ORBIFLY MET'MAP TEAM :

Programmation & Développement : Alexandra Zaïnal
Conception & Développement : Baudouin d'Aumeries
Co-Programmation & Développement : Marc-Olivier Méhu
Soutien technique & logistique : Manuel Goepfert

Contact : metmap@orbifly.com




SOURCES & CREDITS :

   NOAA